KNLC

Lemoore NAS (Reeves Field) Airport

Lemoore, California, USA
METAR KNLC 230956Z AUTO 28005KT 10SM CLR 10/01 A2994 RMK AO2 SLP139 T01000011 $
Observed Flight Rules
Oct-23 @ 09:56 UTC (16 minutes ago) Visual Flight Rules
Wind Visibility Clouds
280° at 5 knots 10 miles
  • Clear skies
Temperatures Readings
Current 10°C / 50°F
Dewpoint 1°C / 34°F
Humidity 54%
Altimeter 29.94" Hg
Pressure 1013.9 hPa
Elevation 72
METAR KNLC 230956Z AUTO 28005KT 10SM CLR 10/01 A2994 RMK AO2 SLP139 T01000011 $
Observed Flight Rules
Oct-23 @ 09:56 UTC
(16 minutes ago)
VFR
Wind Visibility
280° at 5 knots 10 miles
Clouds
  • Clear skies
Temperature Dewpoint
10°C / 50°F 1°C / 34°F
Humidity Altimeter Pressure
54% 29.94" Hg 1013.9 hPa